Minton, Canada
Current Conditions -  °F | °C
As of 12:55 PM on Saturday 25 Oct 2014 (Local Time) from KD50 Reporting Station
Broken Clouds Broken Clouds  
Wind Chill: 55°   Ceiling: 8000
Heat Index: 55°   Visibility: 10mi
Dew Point: 30°   Wind: 13mph
Humidity: 38%   Direction: 190°S
Pressure: 30.08"   Gusts: NA
Location:  49.17°N, 104.58°W
Report Text: KD50 251855Z AUTO 19011KT 10SM BKN080 13/M01 A3008 RMK AO2
Loading
Personal Weather Stations






























Interactive Weather Map New forecast layout! Learn more

10-Day Weather Forecast

Advertisements
Track Severe Weather on mobile